Time;durP1;ratioP1;P1;durP2;ratioP2;P2;SDS_P1;SDS_P2;PMS_P1;PMS_P2;Temp;Humidity;BMP_temperature;BMP_pressure;BME280_temperature;BME280_humidity;BME280_pressure;Samples;Min_cycle;Max_cycle;Signal;HPM_P1;HPM_P2
2022/11/12 00:01:08;;;;;;;31.30;15.00;;;;;;;9.80;87.65;100628.14;1723856;82;21022;-79
2022/11/12 00:03:54;;;;;;;29.55;15.40;;;;;;;9.77;87.46;100619.06;1732846;82;21524;-80
2022/11/12 00:06:39;;;;;;;36.93;15.72;;;;;;;9.71;87.26;100623.80;1744065;82;21031;-79
2022/11/12 00:09:24;;;;;;;31.40;15.08;;;;;;;9.67;87.59;100625.95;1728405;82;21051;-76
2022/11/12 00:12:09;;;;;;;65.70;24.90;;;;;;;9.63;87.55;100623.32;1727879;82;20991;-78
2022/11/12 00:14:54;;;;;;;44.50;19.15;;;;;;;9.55;87.40;100624.62;1722757;82;21063;-79
2022/11/12 00:17:40;;;;;;;43.80;19.98;;;;;;;9.57;87.39;100631.98;1730396;82;20988;-79
2022/11/12 00:20:25;;;;;;;40.28;17.92;;;;;;;9.54;87.71;100630.22;1724250;82;21512;-76
2022/11/12 00:23:10;;;;;;;35.88;17.12;;;;;;;9.56;87.88;100630.23;1730148;82;21000;-79
2022/11/12 00:26:00;;;;;;;31.82;14.65;;;;;;;9.58;87.95;100631.11;1723574;82;21073;-79
2022/11/12 00:28:45;;;;;;;31.77;14.50;;;;;;;9.58;87.73;100635.00;1725209;82;21056;-77
2022/11/12 00:31:30;;;;;;;35.90;17.73;;;;;;;9.55;87.76;100629.81;1721284;82;21015;-77
2022/11/12 00:34:15;;;;;;;32.78;17.30;;;;;;;9.54;88.12;100632.81;1725348;82;21571;-76
2022/11/12 00:37:00;;;;;;;32.23;14.83;;;;;;;9.58;88.37;100635.00;1726656;82;21100;-79
2022/11/12 00:39:45;;;;;;;26.50;13.50;;;;;;;9.62;88.40;100636.74;1727545;82;21504;-76
2022/11/12 00:42:30;;;;;;;30.27;13.90;;;;;;;9.64;88.06;100639.34;1722483;82;20964;-77
2022/11/12 00:45:15;;;;;;;39.48;13.45;;;;;;;9.57;88.18;100637.17;1728983;82;21031;-76
2022/11/12 00:47:59;;;;;;;29.15;14.33;;;;;;;9.50;88.40;100636.27;1722496;82;21461;-77
2022/11/12 00:50:44;;;;;;;33.95;16.80;;;;;;;9.51;88.53;100640.61;1728957;81;21016;-78
2022/11/12 00:53:30;;;;;;;29.75;15.45;;;;;;;9.52;88.47;100637.14;1734297;82;20960;-78
2022/11/12 00:56:14;;;;;;;35.55;15.60;;;;;;;9.52;88.38;100644.06;1735664;80;21028;-78
2022/11/12 00:58:59;;;;;;;36.73;16.15;;;;;;;9.55;88.68;100641.50;1720845;82;20984;-77
2022/11/12 01:01:44;;;;;;;34.55;15.70;;;;;;;9.54;87.84;100647.09;1733240;80;21484;-77
2022/11/12 01:04:29;;;;;;;30.55;16.07;;;;;;;9.47;88.09;100650.55;1722977;80;20960;-77
2022/11/12 01:07:16;;;;;;;27.85;15.48;;;;;;;9.45;88.27;100658.77;1745132;82;21004;-79
2022/11/12 01:10:01;;;;;;;32.85;15.63;;;;;;;9.43;87.93;100655.70;1746042;80;20945;-76
2022/11/12 01:12:45;;;;;;;37.85;16.80;;;;;;;9.40;88.58;100652.66;1725058;82;20948;-77
2022/11/12 01:15:30;;;;;;;28.50;14.25;;;;;;;9.40;88.88;100657.00;1723326;80;20999;-77
2022/11/12 01:18:15;;;;;;;30.10;15.55;;;;;;;9.38;88.42;100656.12;1736233;80;21821;-78
2022/11/12 01:21:05;;;;;;;31.05;15.13;;;;;;;9.36;88.40;100648.33;1724788;82;20988;-77
2022/11/12 01:23:50;;;;;;;26.45;14.05;;;;;;;9.33;88.69;100651.78;1742757;82;20969;-77
2022/11/12 01:26:34;;;;;;;30.48;13.48;;;;;;;9.31;88.93;100641.82;1736951;82;20951;-76
2022/11/12 01:29:19;;;;;;;29.18;13.48;;;;;;;9.33;88.96;100650.48;1737523;82;21033;-76
2022/11/12 01:32:05;;;;;;;27.85;13.18;;;;;;;9.35;88.82;100642.27;1735526;80;20949;-77
2022/11/12 01:34:50;;;;;;;28.27;12.78;;;;;;;9.39;88.19;100647.05;1747974;82;20952;-77
2022/11/12 01:37:35;;;;;;;30.80;13.08;;;;;;;9.38;88.51;100639.25;1740419;80;21071;-77
2022/11/12 01:40:20;;;;;;;27.15;12.68;;;;;;;9.39;88.54;100639.27;1743006;82;20945;-75
2022/11/12 01:43:13;;;;;;;24.47;11.75;;;;;;;9.39;88.69;100631.89;1740680;82;21315;-77
2022/11/12 01:46:02;;;;;;;33.30;12.68;;;;;;;9.41;89.05;100628.86;1725926;80;20976;-77
2022/11/12 01:48:54;;;;;;;24.45;12.78;;;;;;;9.46;89.15;100636.25;1730318;80;21484;-77
2022/11/12 01:51:43;;;;;;;25.10;12.00;;;;;;;9.49;88.85;100628.46;1748555;80;21591;-77
2022/11/12 01:54:28;;;;;;;25.40;12.13;;;;;;;9.52;88.98;100637.58;1722722;80;21824;-76
2022/11/12 01:57:14;;;;;;;28.42;12.68;;;;;;;9.53;88.93;100635.43;1747415;82;20974;-76
2022/11/12 02:00:04;;;;;;;29.27;13.93;;;;;;;9.58;89.06;100636.30;1741089;80;21412;-77
2022/11/12 02:03:00;;;;;;;32.53;14.30;;;;;;;9.65;89.15;100639.77;1744034;80;20980;-77
2022/11/12 02:05:49;;;;;;;37.28;16.25;;;;;;;9.70;88.97;100644.13;1723658;82;20932;-77
2022/11/12 02:08:34;;;;;;;38.35;17.05;;;;;;;9.72;88.84;100643.70;1749694;80;21465;-77
2022/11/12 02:11:20;;;;;;;32.33;16.75;;;;;;;9.75;89.05;100641.13;1711301;81;20968;-78
2022/11/12 02:14:05;;;;;;;41.88;18.80;;;;;;;9.81;89.10;100644.17;1735023;80;20992;-76
2022/11/12 02:16:50;;;;;;;39.80;19.07;;;;;;;9.85;88.99;100645.05;1746235;80;20939;-77
2022/11/12 02:19:37;;;;;;;31.95;15.80;;;;;;;9.87;88.79;100649.83;1723219;82;21035;-77
2022/11/12 02:22:21;;;;;;;33.73;15.55;;;;;;;9.83;88.51;100637.66;1730969;80;20959;-77
2022/11/12 02:25:10;;;;;;;35.75;16.25;;;;;;;9.80;88.43;100637.23;1740150;82;20976;-76
2022/11/12 02:27:56;;;;;;;36.53;17.07;;;;;;;9.75;88.62;100641.56;1719964;82;20993;-77
2022/11/12 02:30:45;;;;;;;39.45;19.60;;;;;;;9.69;88.52;100635.91;1736809;80;21040;-77
2022/11/12 02:33:30;;;;;;;37.00;18.50;;;;;;;9.64;88.73;100642.80;1719803;80;20971;-77
2022/11/12 02:36:15;;;;;;;38.23;17.10;;;;;;;9.59;89.07;100636.75;1732663;82;21095;-77
2022/11/12 02:39:00;;;;;;;32.55;16.15;;;;;;;9.56;88.58;100645.38;1728903;80;21002;-76
2022/11/12 02:41:44;;;;;;;33.38;15.15;;;;;;;9.48;88.57;100630.20;1723200;82;21042;-77
2022/11/12 02:44:31;;;;;;;33.98;15.95;;;;;;;9.44;88.10;100631.05;1719798;80;21095;-76
2022/11/12 02:47:16;;;;;;;34.70;16.65;;;;;;;9.37;88.82;100631.91;1731485;80;21031;-78
2022/11/12 02:50:01;;;;;;;29.77;14.55;;;;;;;9.37;89.17;100634.50;1704679;82;21068;-77
2022/11/12 02:52:45;;;;;;;31.48;15.05;;;;;;;9.36;89.41;100633.61;1725053;80;21011;-78
2022/11/12 02:55:30;;;;;;;35.68;15.43;;;;;;;9.38;89.73;100634.06;1743216;81;21677;-76
2022/11/12 02:58:15;;;;;;;34.60;16.35;;;;;;;9.33;89.82;100625.83;1720741;82;21027;-79
2022/11/12 03:01:00;;;;;;;26.50;13.15;;;;;;;9.36;89.73;100627.56;1724949;82;21012;-78
2022/11/12 03:03:45;;;;;;;22.32;12.18;;;;;;;9.39;89.68;100626.70;1728762;82;21051;-78
2022/11/12 03:06:30;;;;;;;29.02;12.30;;;;;;;9.36;89.57;100626.26;1736941;82;21076;-76
2022/11/12 03:09:15;;;;;;;23.70;11.93;;;;;;;9.35;89.50;100633.19;1726627;82;20976;-79
2022/11/12 03:12:00;;;;;;;28.45;12.35;;;;;;;9.35;89.48;100633.19;1725046;82;21059;-76
2022/11/12 03:14:45;;;;;;;25.00;12.45;;;;;;;9.35;89.36;100626.70;1725641;82;21007;-76
2022/11/12 03:17:30;;;;;;;23.65;11.03;;;;;;;9.34;89.32;100626.69;1724989;82;21071;-77
2022/11/12 03:20:16;;;;;;;22.80;11.22;;;;;;;9.36;89.35;100627.56;1749875;82;21004;-78
2022/11/12 03:23:05;;;;;;;22.67;11.63;;;;;;;9.36;89.15;100628.86;1739782;81;21024;-77
2022/11/12 03:25:50;;;;;;;27.62;11.85;;;;;;;9.35;89.12;100621.91;1724517;82;20980;-77
2022/11/12 03:28:35;;;;;;;24.35;11.93;;;;;;;9.34;89.02;100624.09;1735328;82;21110;-78
2022/11/12 03:31:20;;;;;;;24.52;13.60;;;;;;;9.33;89.25;100634.91;1734728;82;21039;-78
2022/11/12 03:34:05;;;;;;;28.07;13.83;;;;;;;9.36;89.32;100641.39;1739992;82;21059;-76
2022/11/12 03:36:50;;;;;;;32.03;14.43;;;;;;;9.36;88.62;100643.98;1743207;82;21119;-78
2022/11/12 03:39:36;;;;;;;28.87;14.28;;;;;;;9.27;88.47;100636.18;1734107;82;21055;-76
2022/11/12 03:42:20;;;;;;;28.67;13.38;;;;;;;9.21;88.51;100632.67;1746740;82;21002;-79
2022/11/12 03:45:06;;;;;;;27.32;13.72;;;;;;;9.15;88.69;100635.69;1727457;82;20984;-79
2022/11/12 03:47:54;;;;;;;26.87;13.30;;;;;;;9.10;89.01;100632.19;1722945;82;21002;-77
2022/11/12 03:50:39;;;;;;;28.55;14.20;;;;;;;9.05;88.49;100640.39;1734631;82;21031;-76
2022/11/12 03:53:26;;;;;;;30.30;13.85;;;;;;;9.00;88.75;100631.70;1724869;82;21014;-79
2022/11/12 03:56:10;;;;;;;30.82;15.95;;;;;;;8.92;88.51;100639.43;1738121;81;21028;-79
2022/11/12 03:58:55;;;;;;;25.62;13.20;;;;;;;8.89;88.50;100635.94;1739403;82;22260;-78
2022/11/12 04:01:40;;;;;;;26.48;12.85;;;;;;;8.85;88.61;100643.27;1730736;82;21079;-77
2022/11/12 04:08:34;;;;;;;31.45;13.32;;;;;;;8.83;88.80;100643.25;1727472;82;21035;-77
2022/11/12 04:10:11;;;;;;;27.85;12.45;;;;;;;8.83;89.24;100634.61;1685024;82;21039;-76
2022/11/12 04:22:19;;;;;;;30.12;13.98;;;;;;;8.78;90.09;100635.89;1735245;82;21097;-78
2022/11/12 04:28:08;;;;;;;27.95;14.03;;;;;;;8.74;89.85;100636.28;1721110;82;21035;-79
2022/11/12 04:30:53;;;;;;;26.75;12.55;;;;;;;8.70;89.67;100637.56;1726815;82;20964;-77
2022/11/12 04:33:38;;;;;;;30.27;14.07;;;;;;;8.61;90.01;100633.59;1727017;82;21328;-79
2022/11/12 04:36:23;;;;;;;30.32;13.05;;;;;;;8.58;90.17;100628.41;1731315;82;21055;-79
2022/11/12 04:39:08;;;;;;;30.45;13.75;;;;;;;8.56;90.22;100629.24;1732962;82;21218;-78
2022/11/12 04:45:01;;;;;;;28.63;13.43;;;;;;;8.55;90.36;100634.00;1732947;82;20996;-78
2022/11/12 04:47:46;;;;;;;29.07;14.45;;;;;;;8.55;90.33;100642.19;1728775;82;21712;-79
2022/11/12 04:50:31;;;;;;;30.10;14.43;;;;;;;8.50;90.22;100637.41;1734297;81;21003;-77
2022/11/12 04:53:16;;;;;;;27.90;13.32;;;;;;;8.45;90.00;100638.65;1734927;82;21015;-79
2022/11/12 04:56:01;;;;;;;31.20;14.75;;;;;;;8.35;89.30;100642.84;1742607;81;21039;-76
2022/11/12 04:58:46;;;;;;;27.70;14.05;;;;;;;8.24;89.78;100644.50;1735621;82;21390;-79
2022/11/12 05:01:31;;;;;;;26.70;13.43;;;;;;;8.15;90.18;100644.40;1723280;82;22314;-76
2022/11/12 05:04:16;;;;;;;31.42;13.83;;;;;;;8.09;90.72;100644.34;1739442;82;21031;-78
2022/11/12 05:07:01;;;;;;;29.87;14.05;;;;;;;8.02;90.52;100644.72;1745063;81;21012;-78
2022/11/12 05:09:46;;;;;;;28.10;14.65;;;;;;;7.94;91.26;100648.95;1725430;82;21500;-79
2022/11/12 05:12:32;;;;;;;26.82;12.80;;;;;;;7.88;91.48;100647.59;1731472;82;21016;-79
2022/11/12 05:15:17;;;;;;;28.12;13.32;;;;;;;7.85;91.69;100647.55;1732344;82;21063;-78
2022/11/12 05:18:03;;;;;;;28.75;14.10;;;;;;;7.82;92.05;100653.58;1725734;82;21051;-78
2022/11/12 05:20:50;;;;;;;28.07;14.50;;;;;;;7.80;91.80;100650.50;1726147;82;21019;-76
2022/11/12 05:23:34;;;;;;;25.85;14.25;;;;;;;7.79;91.80;100656.11;1738607;82;21047;-76
2022/11/12 05:26:19;;;;;;;30.48;14.20;;;;;;;7.75;91.95;100651.75;1727394;81;21571;-76
2022/11/12 05:29:04;;;;;;;31.95;13.88;;;;;;;7.74;92.07;100656.07;1731317;82;21000;-76
2022/11/12 05:31:49;;;;;;;32.17;14.35;;;;;;;7.75;92.41;100657.80;1745093;82;21004;-78
2022/11/12 05:34:35;;;;;;;30.88;14.25;;;;;;;7.71;92.36;100657.75;1734023;82;21904;-79
2022/11/12 05:37:20;;;;;;;27.65;14.55;;;;;;;7.66;91.88;100661.59;1723481;82;21069;-79
2022/11/12 05:40:06;;;;;;;35.70;14.53;;;;;;;7.59;92.04;100670.12;1736048;82;20977;-78
2022/11/12 05:42:51;;;;;;;27.80;13.05;;;;;;;7.57;92.21;100666.64;1739973;82;21020;-77
2022/11/12 05:45:36;;;;;;;31.57;14.58;;;;;;;7.55;92.22;100675.67;1728436;82;20987;-76
2022/11/12 05:48:21;;;;;;;34.33;13.95;;;;;;;7.53;91.42;100678.67;1752202;82;21047;-76
2022/11/12 05:51:05;;;;;;;25.60;13.08;;;;;;;7.47;92.15;100677.30;1731632;82;21011;-76
2022/11/12 05:53:50;;;;;;;27.65;13.95;;;;;;;7.43;92.49;100683.72;1736230;82;20944;-77
2022/11/12 05:56:35;;;;;;;26.70;14.15;;;;;;;7.44;93.20;100691.52;1734737;80;20992;-77
2022/11/12 05:59:21;;;;;;;27.30;13.65;;;;;;;7.43;93.17;100687.17;1720760;82;21444;-76
2022/11/12 06:02:05;;;;;;;29.30;13.10;;;;;;;7.43;93.48;100692.78;1733005;80;20964;-77
2022/11/12 06:04:50;;;;;;;29.20;15.30;;;;;;;7.44;94.21;100689.33;1721545;80;20967;-76
2022/11/12 06:07:34;;;;;;;28.95;13.68;;;;;;;7.42;93.75;100694.50;1732517;80;21509;-76
2022/11/12 06:10:19;;;;;;;29.10;12.88;;;;;;;7.43;93.87;100700.11;1745687;80;20925;-76
2022/11/12 06:13:04;;;;;;;29.75;13.30;;;;;;;7.44;93.16;100704.45;1740198;80;21083;-76
2022/11/12 06:15:53;;;;;;;27.45;13.72;;;;;;;7.43;93.32;100705.72;1741632;82;21035;-76
2022/11/12 06:18:38;;;;;;;28.62;13.93;;;;;;;7.41;93.89;100706.98;1738969;80;20988;-78
2022/11/12 06:21:23;;;;;;;34.65;13.78;;;;;;;7.40;94.20;100714.31;1741682;80;20972;-76
2022/11/12 06:24:09;;;;;;;32.65;14.07;;;;;;;7.41;93.85;100714.75;1729734;82;20974;-77
2022/11/12 06:26:54;;;;;;;30.97;14.95;;;;;;;7.43;93.86;100716.93;1729209;80;20951;-77
2022/11/12 06:29:38;;;;;;;32.23;14.70;;;;;;;7.46;94.25;100714.39;1725352;80;20967;-76
2022/11/12 06:32:24;;;;;;;38.08;15.15;;;;;;;7.48;93.75;100718.27;1726136;80;20988;-76
2022/11/12 06:35:09;;;;;;;32.93;14.93;;;;;;;7.48;93.91;100716.58;1746725;80;21032;-76
2022/11/12 06:37:54;;;;;;;38.17;15.23;;;;;;;7.53;94.21;100721.37;1734885;80;21511;-76
2022/11/12 06:40:40;;;;;;;39.48;15.03;;;;;;;7.59;94.43;100719.30;1722707;82;21037;-78
2022/11/12 06:43:28;;;;;;;35.30;15.98;;;;;;;7.66;94.06;100720.23;1718224;82;21164;-78
2022/11/12 06:46:15;;;;;;;41.70;15.90;;;;;;;7.70;93.92;100715.14;1744846;80;20984;-77
2022/11/12 06:49:00;;;;;;;36.45;17.40;;;;;;;7.75;93.71;100718.63;1738465;80;20945;-75
2022/11/12 06:51:44;;;;;;;34.30;16.77;;;;;;;7.82;93.87;100723.88;1720582;82;20964;-77
2022/11/12 06:54:29;;;;;;;41.18;17.57;;;;;;;7.84;93.19;100724.77;1732939;82;20960;-79
2022/11/12 06:57:14;;;;;;;31.00;14.63;;;;;;;7.83;93.16;100725.20;1749620;80;21024;-79
2022/11/12 06:59:59;;;;;;;30.00;14.93;;;;;;;7.86;93.24;100727.84;1727566;82;21064;-78
2022/11/12 07:02:44;;;;;;;31.40;14.90;;;;;;;7.90;92.99;100726.17;1739517;82;21057;-79
2022/11/12 07:05:30;;;;;;;31.60;14.90;;;;;;;7.92;92.86;100729.21;1733737;82;21075;-79
2022/11/12 07:08:15;;;;;;;30.25;14.20;;;;;;;7.95;92.91;100720.60;1741426;82;21543;-77
2022/11/12 07:11:00;;;;;;;32.50;14.83;;;;;;;7.95;92.89;100727.08;1724647;81;21942;-79
2022/11/12 07:13:46;;;;;;;33.48;14.90;;;;;;;8.01;92.28;100732.32;1724228;82;21119;-78
2022/11/12 07:16:33;;;;;;;29.42;13.60;;;;;;;8.02;92.73;100728.00;1740407;82;20992;-78
2022/11/12 07:19:18;;;;;;;28.30;14.35;;;;;;;8.05;92.71;100728.05;1741800;82;21016;-79
2022/11/12 07:22:02;;;;;;;27.45;14.40;;;;;;;8.11;92.21;100728.12;1746756;82;21310;-78
2022/11/12 07:24:48;;;;;;;29.07;14.35;;;;;;;8.08;92.22;100729.40;1738655;81;21031;-76
2022/11/12 07:27:33;;;;;;;29.85;12.78;;;;;;;8.06;92.13;100733.26;1738592;82;20984;-79
2022/11/12 07:30:18;;;;;;;28.73;13.48;;;;;;;8.00;92.25;100725.82;1737324;81;21012;-78
2022/11/12 07:33:03;;;;;;;27.17;13.22;;;;;;;7.99;92.23;100731.87;1748814;82;21053;-78
2022/11/12 07:35:48;;;;;;;26.10;12.53;;;;;;;8.02;92.48;100731.89;1741810;81;21177;-76
2022/11/12 07:38:36;;;;;;;25.72;12.10;;;;;;;8.08;92.55;100732.84;1720251;82;21543;-78
2022/11/12 07:41:23;;;;;;;25.88;12.13;;;;;;;8.14;92.32;100733.34;1730534;82;20995;-76
2022/11/12 07:44:08;;;;;;;23.47;11.63;;;;;;;8.18;92.27;100737.70;1722903;82;21922;-76
2022/11/12 07:46:53;;;;;;;29.48;14.00;;;;;;;8.24;92.32;100736.48;1737891;82;21015;-76
2022/11/12 07:49:38;;;;;;;27.27;12.88;;;;;;;8.29;92.08;100740.40;1728634;82;21083;-77
2022/11/12 07:52:22;;;;;;;28.47;13.08;;;;;;;8.35;92.12;100734.84;1738922;82;21016;-76
2022/11/12 07:55:08;;;;;;;25.82;13.10;;;;;;;8.45;92.13;100734.98;1732547;82;21044;-78
2022/11/12 07:57:53;;;;;;;35.65;14.58;;;;;;;8.54;92.08;100729.46;1735655;82;20996;-77
2022/11/12 08:00:37;;;;;;;28.73;14.15;;;;;;;8.58;91.35;100734.25;1749587;82;20964;-77
2022/11/12 08:03:22;;;;;;;35.15;14.93;;;;;;;8.66;91.35;100731.73;1743506;82;20995;-77
2022/11/12 08:06:07;;;;;;;26.65;12.70;;;;;;;8.73;90.94;100733.50;1735893;81;21908;-79
2022/11/12 08:08:56;;;;;;;25.25;12.33;;;;;;;8.80;90.43;100731.42;1750006;82;21476;-76
2022/11/12 08:11:41;;;;;;;22.95;13.00;;;;;;;8.82;90.00;100734.89;1728564;81;21516;-76
2022/11/12 08:14:25;;;;;;;30.90;13.55;;;;;;;8.82;89.71;100728.41;1722599;82;20972;-77
2022/11/12 08:17:10;;;;;;;23.05;12.30;;;;;;;8.84;90.17;100730.59;1724043;82;21055;-77
2022/11/12 08:19:54;;;;;;;22.02;10.68;;;;;;;8.90;89.96;100731.93;1722630;82;20955;-79
2022/11/12 08:22:40;;;;;;;29.95;15.43;;;;;;;8.96;89.84;100731.11;1728205;82;21460;-77
2022/11/12 08:25:24;;;;;;;22.07;12.50;;;;;;;9.04;89.80;100742.41;1739870;81;21528;-76
2022/11/12 08:28:09;;;;;;;21.62;10.70;;;;;;;9.13;89.81;100745.49;1729560;82;21083;-78
2022/11/12 08:30:55;;;;;;;25.90;11.57;;;;;;;9.22;89.46;100742.11;1733182;82;20995;-77
2022/11/12 08:33:41;;;;;;;26.20;12.03;;;;;;;9.30;89.95;100737.84;1736051;81;22266;-78
2022/11/12 08:36:26;;;;;;;23.30;10.93;;;;;;;9.40;89.20;100743.52;1721562;82;22322;-77
2022/11/12 08:39:11;;;;;;;21.35;11.73;;;;;;;9.46;89.59;100738.36;1730813;82;21057;-78
2022/11/12 08:41:56;;;;;;;25.75;10.90;;;;;;;9.55;89.75;100744.91;1721193;82;21014;-79
2022/11/12 08:44:41;;;;;;;22.90;10.60;;;;;;;9.64;88.72;100741.48;1732755;82;21855;-77
2022/11/12 08:47:26;;;;;;;19.75;10.40;;;;;;;9.72;89.24;100744.12;1742808;82;21024;-79
2022/11/12 08:50:11;;;;;;;23.55;11.70;;;;;;;9.76;89.19;100742.84;1742936;82;20972;-78
2022/11/12 08:53:04;;;;;;;22.25;12.00;;;;;;;9.87;87.62;100743.34;1751383;81;21019;-76
2022/11/12 08:55:55;;;;;;;25.88;11.05;;;;;;;9.85;86.80;100743.33;1742495;82;21814;-79
2022/11/12 08:58:39;;;;;;;19.12;10.93;;;;;;;9.90;86.99;100742.03;1720596;80;20992;-79
2022/11/12 09:01:25;;;;;;;21.23;12.07;;;;;;;9.93;86.74;100750.72;1741059;80;21020;-79
2022/11/12 09:04:09;;;;;;;22.55;11.70;;;;;;;9.97;86.36;100749.00;1734217;82;21008;-79
2022/11/12 09:06:54;;;;;;;25.82;12.88;;;;;;;10.01;86.22;100752.45;1734634;82;20988;-80
2022/11/12 09:09:39;;;;;;;20.57;10.13;;;;;;;10.04;85.73;100749.45;1734362;80;21036;-77
2022/11/12 09:12:24;;;;;;;25.02;10.60;;;;;;;10.10;84.50;100748.16;1744490;80;21013;-76
2022/11/12 09:15:09;;;;;;;24.67;10.90;;;;;;;10.16;84.77;100754.67;1722811;82;21028;-80
2022/11/12 09:18:03;;;;;;;21.50;10.50;;;;;;;10.26;84.37;100758.17;1720321;82;21049;-79
2022/11/12 09:20:48;;;;;;;;;;;;;;;10.29;82.72;100757.34;1725573;80;21007;-79
2022/11/12 09:23:34;;;;;;;24.60;10.93;;;;;;;10.39;83.71;100763.02;1722614;80;20165;-79
2022/11/12 09:26:19;;;;;;;24.52;11.53;;;;;;;10.49;84.77;100762.61;1727192;82;21003;-76
2022/11/12 09:29:04;;;;;;;19.95;10.80;;;;;;;10.61;84.32;100765.67;1738322;82;21053;-77
2022/11/12 09:31:50;;;;;;;20.92;11.93;;;;;;;10.73;83.41;100769.14;1728188;82;21440;-77
2022/11/12 09:34:34;;;;;;;21.40;11.93;;;;;;;10.78;81.62;100766.98;1719774;82;20948;-77
2022/11/12 09:37:18;;;;;;;21.90;10.70;;;;;;;10.77;81.47;100762.22;1730187;80;21077;-78
2022/11/12 09:40:09;;;;;;;24.45;12.13;;;;;;;10.85;82.24;100760.48;1720044;82;20940;-77
2022/11/12 09:42:53;;;;;;;20.35;11.03;;;;;;;10.92;82.36;100766.13;1728474;80;21047;-77
2022/11/12 09:45:39;;;;;;;17.80;9.88;;;;;;;11.00;82.57;100760.04;1750263;80;20967;-77
2022/11/12 09:48:31;;;;;;;18.87;10.38;;;;;;;11.10;82.32;100753.95;1741640;82;21484;-77
2022/11/12 09:51:27;;;;;;;20.90;10.32;;;;;;;11.19;81.07;100747.45;1746855;80;21503;-76
2022/11/12 09:54:22;;;;;;;21.77;10.85;;;;;;;11.28;80.82;100745.26;1731627;80;21012;-78
2022/11/12 09:57:13;;;;;;;22.27;11.53;;;;;;;11.34;79.99;100742.23;1722898;82;21071;-79
2022/11/12 09:59:58;;;;;;;21.02;10.23;;;;;;;11.39;81.19;100741.35;1736197;80;20992;-77
2022/11/12 10:03:29;;;;;;;18.87;10.20;;;;;;;11.45;79.68;100741.34;1746506;80;21036;-79
2022/11/12 10:06:25;;;;;;;19.57;9.25;;;;;;;11.50;80.50;100736.55;1736356;80;21020;-78
2022/11/12 10:09:15;;;;;;;16.70;8.20;;;;;;;11.58;78.62;100736.95;1753883;81;21036;-79
2022/11/12 10:12:30;;;;;;;19.20;9.50;;;;;;;11.64;79.30;100743.44;1736365;80;20993;-79
2022/11/12 10:19:06;;;;;;;16.93;8.75;;;;;;;11.81;79.28;100742.95;1748749;80;21009;-79
2022/11/12 10:22:26;;;;;;;17.12;8.53;;;;;;;11.95;77.86;100745.53;1740310;80;21013;-80
2022/11/12 10:25:18;;;;;;;16.93;8.83;;;;;;;12.05;78.48;100738.09;1697347;80;21047;-79
2022/11/12 10:28:28;;;;;;;15.53;8.30;;;;;;;12.13;76.13;100739.36;1745206;80;20989;-80
2022/11/12 10:31:17;;;;;;;14.00;8.25;;;;;;;12.20;77.38;100739.77;1733573;82;21099;-79
2022/11/12 10:34:19;;;;;;;13.05;6.95;;;;;;;12.27;73.36;100737.55;1743412;81;21000;-79
2022/11/12 10:37:18;;;;;;;16.87;7.87;;;;;;;12.33;74.45;100737.53;1740793;80;21147;-79
2022/11/12 10:40:34;;;;;;;13.20;7.00;;;;;;;12.41;74.51;100736.16;1747036;81;21011;-79
2022/11/12 10:43:23;;;;;;;14.68;6.83;;;;;;;12.54;75.65;100736.95;1736527;80;21071;-79
2022/11/12 10:46:25;;;;;;;16.82;7.35;;;;;;;12.68;75.82;100735.55;1752053;81;21004;-77
2022/11/12 10:49:18;;;;;;;14.33;6.85;;;;;;;12.77;74.17;100735.46;1738763;80;20989;-77
2022/11/12 10:52:03;;;;;;;19.45;8.20;;;;;;;12.83;71.37;100733.25;1751209;81;20956;-78
2022/11/12 10:54:48;;;;;;;17.48;7.90;;;;;;;12.92;71.72;100726.20;1760861;81;21556;-79
2022/11/12 10:57:32;;;;;;;13.98;6.70;;;;;;;13.01;72.59;100725.28;1748552;81;21046;-75
2022/11/12 11:00:20;;;;;;;17.35;6.92;;;;;;;13.13;72.76;100723.86;1723967;80;21020;-77
2022/11/12 11:03:31;;;;;;;12.93;6.35;;;;;;;13.17;69.53;100721.20;1748817;80;20999;-78
2022/11/12 11:06:24;;;;;;;13.38;6.70;;;;;;;13.19;70.75;100722.94;1728022;82;21083;-77
2022/11/12 11:09:16;;;;;;;16.25;6.67;;;;;;;13.22;69.23;100711.58;1720714;82;21024;-79
2022/11/12 11:12:01;;;;;;;11.53;6.20;;;;;;;13.27;70.75;100713.27;1734362;80;20992;-78
2022/11/12 11:14:50;;;;;;;12.37;7.05;;;;;;;13.31;69.56;100716.76;1718321;80;22186;-76
2022/11/12 11:17:35;;;;;;;14.13;7.35;;;;;;;13.31;69.27;100714.14;1742155;80;21014;-77
2022/11/12 11:20:36;;;;;;;14.30;6.72;;;;;;;13.41;69.73;100715.77;1718319;82;21701;-78
2022/11/12 11:23:25;;;;;;;13.10;6.72;;;;;;;13.51;69.95;100712.17;1728947;82;21016;-78
2022/11/12 11:26:45;;;;;;;11.45;5.83;;;;;;;13.67;69.12;100718.09;1735844;80;22029;-79
2022/11/12 11:29:59;;;;;;;11.57;6.22;;;;;;;13.81;68.14;100703.54;1738989;80;21550;-78
2022/11/12 11:33:16;;;;;;;14.13;5.90;;;;;;;13.97;69.00;100700.28;1733503;82;20995;-78
2022/11/12 11:36:09;;;;;;;12.53;6.12;;;;;;;14.03;68.12;100699.34;1719700;82;21030;-77
2022/11/12 11:38:59;;;;;;;12.63;6.33;;;;;;;14.26;67.50;100705.08;1732306;80;20960;-76
2022/11/12 11:41:52;;;;;;;12.45;6.05;;;;;;;14.47;66.84;100696.06;1720595;82;20968;-76
2022/11/12 11:45:21;;;;;;;12.20;5.83;;;;;;;14.77;66.58;100693.02;1725683;80;20988;-76
2022/11/12 11:48:23;;;;;;;10.68;5.72;;;;;;;15.05;63.21;100698.63;1724914;82;21027;-78
2022/11/12 11:51:36;;;;;;;11.48;6.08;;;;;;;15.40;65.42;100689.23;1725601;80;20976;-78
2022/11/12 11:54:35;;;;;;;12.35;5.35;;;;;;;15.51;64.18;100685.51;1725001;80;21032;-77
2022/11/12 11:57:28;;;;;;;9.28;5.65;;;;;;;15.71;62.14;100684.24;1718683;80;21341;-76
2022/11/12 12:00:24;;;;;;;13.98;6.00;;;;;;;15.77;61.50;100680.21;1736901;80;21706;-76
2022/11/12 12:03:24;;;;;;;12.50;6.03;;;;;;;15.80;60.62;100678.00;1774218;80;21016;-77
2022/11/12 12:06:31;;;;;;;15.35;6.35;;;;;;;15.93;59.29;100682.52;1728317;80;20955;-78
2022/11/12 12:09:27;;;;;;;16.57;7.17;;;;;;;16.01;61.46;100681.89;1727194;80;20984;-76
2022/11/12 12:12:17;;;;;;;9.83;5.20;;;;;;;16.06;59.91;100676.96;1720020;80;21008;-80
2022/11/12 12:15:44;;;;;;;12.63;5.90;;;;;;;16.07;60.00;100679.98;1724234;80;21053;-78
2022/11/12 12:18:58;;;;;;;9.58;5.58;;;;;;;16.01;59.86;100671.40;1748928;80;21040;-79
2022/11/12 12:21:47;;;;;;;11.45;5.87;;;;;;;16.01;56.20;100681.44;1736962;80;21023;-76
2022/11/12 12:24:46;;;;;;;11.33;5.83;;;;;;;16.04;58.41;100678.76;1724033;82;21500;-79
2022/11/12 12:27:39;;;;;;;12.18;5.60;;;;;;;16.12;59.06;100674.66;1728030;82;20995;-78
2022/11/12 12:30:24;;;;;;;9.65;5.22;;;;;;;16.39;57.13;100679.69;1724174;82;21006;-80
2022/11/12 12:33:28;;;;;;;15.03;5.83;;;;;;;16.50;57.33;100682.08;1725880;82;21541;-78
2022/11/12 12:36:19;;;;;;;15.98;7.70;;;;;;;16.52;56.43;100678.11;1719756;82;21060;-77
2022/11/12 12:39:44;;;;;;;26.77;11.33;;;;;;;16.66;58.14;100676.00;1719986;82;21069;-79
2022/11/12 12:42:40;;;;;;;12.55;5.83;;;;;;;16.76;56.55;100679.26;1644867;86;21011;-77
2022/11/12 12:45:40;;;;;;;11.65;5.05;;;;;;;16.86;58.25;100674.20;1732270;80;21583;-78
2022/11/12 12:48:35;;;;;;;11.88;5.12;;;;;;;16.72;56.50;100679.78;1737476;80;20971;-77
2022/11/12 12:51:21;;;;;;;12.13;6.00;;;;;;;16.68;55.90;100678.98;1735988;80;21040;-78
2022/11/12 12:54:44;;;;;;;12.20;5.80;;;;;;;16.78;58.60;100682.70;1723641;82;20924;-77
2022/11/12 12:57:34;;;;;;;11.70;4.92;;;;;;;16.72;55.55;100674.52;1724064;82;21065;-77
2022/11/12 13:00:29;;;;;;;10.28;5.05;;;;;;;16.80;58.83;100679.59;1699691;82;20961;-76
2022/11/12 13:03:27;;;;;;;9.70;4.83;;;;;;;16.78;55.94;100675.68;1727681;82;20976;-77
2022/11/12 13:06:26;;;;;;;13.65;6.53;;;;;;;16.78;59.34;100666.48;1724892;82;20981;-75
2022/11/12 13:09:19;;;;;;;13.90;6.30;;;;;;;16.77;58.12;100681.85;1720427;82;21516;-77
2022/11/12 13:15:11;;;;;;;11.60;5.60;;;;;;;16.38;56.40;100683.69;1727858;82;21032;-77
2022/11/12 13:17:56;;;;;;;9.03;4.90;;;;;;;16.15;56.55;100685.52;1731216;82;21079;-79
2022/11/12 13:20:42;;;;;;;11.35;6.53;;;;;;;15.95;55.79;100682.03;1712911;82;21064;-78